Time;durP1;ratioP1;P1;durP2;ratioP2;P2;SDS_P1;SDS_P2;PMS_P1;PMS_P2;Temp;Humidity;BMP_temperature;BMP_pressure;BME280_temperature;BME280_humidity;BME280_pressure;Samples;Min_cycle;Max_cycle;Signal;HPM_P1;HPM_P2
2022/11/06 00:00:22;;;;;;;2.05;1.55;;;18.00;99.90;;;;;;5071607;28;20112;-68
2022/11/06 00:02:47;;;;;;;0.20;0.20;;;17.90;99.90;;;;;;5070462;28;20028;-66
2022/11/06 00:07:58;;;;;;;0.43;0.43;;;18.00;99.90;;;;;;5071919;28;20073;-66
2022/11/06 00:10:23;;;;;;;0.20;0.20;;;18.10;99.90;;;;;;5071466;28;20498;-67
2022/11/06 00:12:49;;;;;;;0.20;0.20;;;18.10;99.90;;;;;;5071545;28;20080;-64
2022/11/06 00:15:15;;;;;;;0.20;0.20;;;18.30;99.90;;;;;;5071576;28;20183;-67
2022/11/06 00:17:41;;;;;;;0.20;0.20;;;18.60;99.90;;;;;;5071694;28;20056;-65
2022/11/06 00:20:08;;;;;;;0.20;0.20;;;18.70;99.90;;;;;;5071712;28;20020;-66
2022/11/06 00:22:35;;;;;;;7.30;1.92;;;18.70;99.90;;;;;;5071684;28;20016;-66
2022/11/06 00:25:01;;;;;;;1.25;1.15;;;18.70;99.90;;;;;;5071628;28;20376;-65
2022/11/06 00:27:27;;;;;;;0.40;0.38;;;18.70;99.90;;;;;;5071410;28;20035;-66
2022/11/06 00:29:53;;;;;;;0.20;0.20;;;18.80;99.90;;;;;;5071421;28;20028;-67
2022/11/06 00:32:19;;;;;;;0.60;0.60;;;18.80;99.90;;;;;;5071502;28;20125;-67
2022/11/06 00:34:46;;;;;;;0.80;0.80;;;18.80;99.90;;;;;;5071426;28;20025;-67
2022/11/06 00:37:11;;;;;;;0.20;0.20;;;18.80;99.90;;;;;;5071280;28;20050;-67
2022/11/06 00:39:37;;;;;;;1.42;0.40;;;18.90;99.90;;;;;;5071310;28;20054;-67
2022/11/06 00:42:03;;;;;;;0.63;0.63;;;18.90;99.90;;;;;;5071539;28;20017;-67
2022/11/06 00:44:29;;;;;;;0.40;0.40;;;18.90;99.90;;;;;;5071058;28;20050;-65
2022/11/06 00:46:54;;;;;;;0.38;0.38;;;18.90;99.90;;;;;;5071139;28;20107;-67
2022/11/06 00:49:20;;;;;;;0.82;0.82;;;18.90;99.90;;;;;;5071334;28;20021;-67
2022/11/06 00:51:46;;;;;;;0.50;0.32;;;18.90;99.90;;;;;;5071070;28;20032;-67
2022/11/06 00:54:12;;;;;;;0.50;0.50;;;19.00;99.90;;;;;;5071106;28;20058;-67
2022/11/06 00:56:39;;;;;;;0.88;0.88;;;19.00;99.90;;;;;;5053278;28;20380;-67
2022/11/06 00:59:07;;;;;;;1.58;1.48;;;19.00;99.90;;;;;;5071019;28;20560;-68
2022/11/06 01:01:38;;;;;;;11.40;1.70;;;19.00;99.90;;;;;;5071157;28;20039;-68
2022/11/06 01:04:14;;;;;;;1.55;1.08;;;19.00;99.90;;;;;;5071058;28;20031;-67
2022/11/06 01:06:43;;;;;;;0.30;0.30;;;19.10;99.90;;;;;;5069669;28;20032;-67
2022/11/06 01:09:12;;;;;;;0.30;0.30;;;19.10;99.90;;;;;;5071129;28;20017;-66
2022/11/06 01:11:41;;;;;;;0.70;0.50;;;19.10;99.90;;;;;;5070849;28;20074;-67
2022/11/06 01:14:09;;;;;;;6.32;2.35;;;19.10;99.90;;;;;;5071061;28;20027;-67
2022/11/06 01:16:35;;;;;;;2.95;1.02;;;19.20;99.90;;;;;;5070806;28;20535;-66
2022/11/06 01:19:00;;;;;;;6.35;0.75;;;19.20;99.90;;;;;;5070937;28;20020;-67
2022/11/06 01:21:30;;;;;;;0.20;0.20;;;19.20;99.90;;;;;;5070867;28;20096;-67
2022/11/06 01:23:59;;;;;;;4.28;0.47;;;19.10;99.90;;;;;;5071032;28;20108;-67
2022/11/06 01:26:26;;;;;;;0.50;0.50;;;19.10;99.90;;;;;;5070775;28;20020;-69
2022/11/06 01:28:52;;;;;;;0.52;0.52;;;19.20;99.90;;;;;;5070889;28;20032;-67
2022/11/06 01:31:21;;;;;;;0.30;0.30;;;19.20;99.90;;;;;;5070541;28;20049;-68
2022/11/06 01:33:48;;;;;;;2.00;1.23;;;21.00;99.90;;;;;;5069289;28;20036;-68
2022/11/06 01:36:16;;;;;;;1.00;0.90;;;20.90;99.90;;;;;;5070711;28;20024;-69
2022/11/06 01:38:45;;;;;;;0.40;0.40;;;20.90;99.90;;;;;;5070550;28;20028;-68
2022/11/06 01:41:16;;;;;;;5.05;2.05;;;20.80;99.90;;;;;;5070650;28;20095;-67
2022/11/06 01:43:47;;;;;;;0.40;0.40;;;20.80;99.90;;;;;;5070583;28;20392;-68
2022/11/06 01:46:14;;;;;;;1.65;1.55;;;20.70;99.90;;;;;;5069419;28;20028;-67
2022/11/06 01:48:43;;;;;;;1.30;0.57;;;20.70;99.90;;;;;;5070499;28;20021;-68
2022/11/06 01:51:09;;;;;;;1.58;1.58;;;20.70;99.90;;;;;;5069062;28;20473;-68
2022/11/06 01:53:36;;;;;;;5.93;1.42;;;20.80;99.90;;;;;;5070378;28;20035;-67
2022/11/06 01:56:06;;;;;;;0.40;0.40;;;20.90;99.90;;;;;;5072767;28;20021;-67
2022/11/06 01:58:33;;;;;;;0.47;0.47;;;20.80;99.90;;;;;;5073972;28;20028;-67
2022/11/06 02:00:59;;;;;;;0.20;0.20;;;20.80;99.90;;;;;;5073892;28;20033;-67
2022/11/06 02:03:25;;;;;;;0.63;0.60;;;20.60;99.90;;;;;;5074048;28;20032;-67
2022/11/06 02:05:52;;;;;;;4.45;0.55;;;20.60;99.90;;;;;;5073740;28;20495;-66
2022/11/06 02:08:20;;;;;;;1.70;1.02;;;20.60;99.90;;;;;;5073948;28;20025;-67
2022/11/06 02:10:47;;;;;;;8.68;1.23;;;20.70;99.90;;;;;;5073697;28;20025;-67
2022/11/06 02:13:37;;;;;;;0.35;0.35;;;20.70;99.90;;;;;;5073743;28;20041;-68
2022/11/06 02:16:03;;;;;;;11.18;0.60;;;20.70;99.90;;;;;;5072337;28;20592;-67
2022/11/06 02:18:53;;;;;;;0.30;0.30;;;20.70;99.90;;;;;;5073552;28;20100;-69
2022/11/06 02:21:30;;;;;;;0.43;0.43;;;20.70;99.90;;;;;;5073470;28;20028;-68
2022/11/06 02:24:10;;;;;;;0.88;0.57;;;20.80;99.90;;;;;;5073514;28;20024;-69
2022/11/06 02:26:56;;;;;;;5.47;0.77;;;20.80;99.90;;;;;;5073475;28;20459;-68
2022/11/06 02:29:37;;;;;;;0.20;0.20;;;20.70;99.90;;;;;;5073490;28;20078;-67
2022/11/06 02:32:10;;;;;;;0.88;0.52;;;20.70;99.90;;;;;;5073031;28;20048;-70
2022/11/06 02:34:38;;;;;;;3.83;1.05;;;20.70;99.90;;;;;;5073366;28;20027;-68
2022/11/06 02:37:11;;;;;;;0.95;0.68;;;20.60;99.90;;;;;;5073206;28;20024;-67
2022/11/06 02:39:41;;;;;;;0.20;0.20;;;20.70;99.90;;;;;;5073269;28;20078;-67
2022/11/06 02:42:09;;;;;;;1.65;0.82;;;20.60;99.90;;;;;;5071990;28;20021;-68
2022/11/06 02:44:36;;;;;;;3.00;2.72;;;20.70;99.90;;;;;;5073068;28;20024;-68
2022/11/06 02:47:06;;;;;;;1.45;0.30;;;20.70;99.90;;;;;;5073198;28;20024;-68
2022/11/06 02:49:48;;;;;;;0.32;0.32;;;20.70;99.90;;;;;;5073302;28;20028;-68
2022/11/06 02:52:20;;;;;;;;;;;20.70;99.90;;;;;;5073250;28;20115;-67
2022/11/06 02:54:54;;;;;;;2.22;1.38;;;20.80;99.90;;;;;;5073025;28;19905;-67
2022/11/06 02:57:21;;;;;;;0.65;0.52;;;20.80;99.90;;;;;;5072660;28;20029;-66
2022/11/06 03:00:24;;;;;;;1.25;1.15;;;20.80;99.90;;;;;;5072712;28;20025;-66
2022/11/06 03:02:55;;;;;;;0.40;0.40;;;20.80;99.90;;;;;;5030105;28;20028;-66
2022/11/06 03:05:35;;;;;;;6.30;1.50;;;20.80;99.90;;;;;;5065927;28;20511;-68
2022/11/06 03:08:17;;;;;;;0.28;0.28;;;20.80;99.90;;;;;;5072898;28;20032;-67
2022/11/06 03:10:53;;;;;;;7.47;1.05;;;20.80;99.90;;;;;;5072613;28;20446;-64
2022/11/06 03:13:26;;;;;;;0.20;0.20;;;20.80;99.90;;;;;;5072469;28;20442;-68
2022/11/06 03:16:04;;;;;;;0.75;0.70;;;20.80;99.90;;;;;;5072451;28;20032;-67
2022/11/06 03:18:35;;;;;;;0.25;0.25;;;20.80;99.90;;;;;;5072374;28;20046;-67
2022/11/06 03:21:09;;;;;;;0.43;0.35;;;20.70;99.90;;;;;;5072638;28;20104;-66
2022/11/06 03:23:40;;;;;;;10.98;0.75;;;20.70;99.90;;;;;;5072497;28;20104;-65
2022/11/06 03:26:17;;;;;;;0.20;0.20;;;20.80;99.90;;;;;;5072377;28;20035;-66
2022/11/06 03:29:15;;;;;;;0.88;0.70;;;20.80;99.90;;;;;;5072190;28;20040;-66
2022/11/06 03:31:50;;;;;;;6.43;0.88;;;20.70;99.90;;;;;;5063781;28;20064;-67
2022/11/06 03:34:47;;;;;;;0.28;0.28;;;20.70;99.90;;;;;;5072116;28;20159;-67
2022/11/06 03:37:18;;;;;;;0.85;0.80;;;20.70;99.90;;;;;;5072308;28;20514;-66
2022/11/06 03:39:52;;;;;;;1.10;0.60;;;20.70;99.90;;;;;;5071859;28;20024;-67
2022/11/06 03:42:24;;;;;;;0.50;0.50;;;20.70;99.90;;;;;;5071941;28;20021;-67
2022/11/06 03:44:55;;;;;;;0.22;0.22;;;20.70;99.90;;;;;;5071981;28;20024;-67
2022/11/06 03:47:30;;;;;;;0.50;0.50;;;20.70;99.90;;;;;;5071768;28;20078;-67
2022/11/06 03:50:06;;;;;;;1.80;1.40;;;20.70;99.90;;;;;;5072144;28;20036;-67
2022/11/06 03:52:43;;;;;;;1.00;0.93;;;20.80;99.90;;;;;;5070480;28;20394;-67
2022/11/06 03:55:14;;;;;;;0.40;0.40;;;20.70;99.90;;;;;;5071791;28;20028;-67
2022/11/06 03:57:57;;;;;;;2.08;0.70;;;20.70;99.90;;;;;;5071796;28;20052;-67
2022/11/06 04:00:23;;;;;;;4.65;1.38;;;20.80;99.90;;;;;;5071695;28;20028;-66
2022/11/06 04:03:03;;;;;;;5.05;1.08;;;20.80;99.90;;;;;;5071736;28;20484;-68
2022/11/06 04:05:39;;;;;;;1.85;0.50;;;20.70;99.90;;;;;;5071445;28;20130;-67
2022/11/06 04:14:00;;;;;;;0.20;0.20;;;20.70;99.90;;;;;;5071824;28;20035;-68
2022/11/06 04:16:38;;;;;;;7.93;1.13;;;20.70;99.90;;;;;;5071639;28;20029;-69
2022/11/06 04:19:24;;;;;;;0.25;0.25;;;20.70;99.90;;;;;;5071325;28;20020;-68
2022/11/06 04:22:27;;;;;;;1.45;1.35;;;20.70;99.90;;;;;;5071280;28;20067;-69
2022/11/06 04:28:27;;;;;;;0.20;0.20;;;20.60;99.90;;;;;;5028805;28;20032;-68
2022/11/06 04:31:16;;;;;;;0.85;0.85;;;20.60;99.90;;;;;;5028606;28;20049;-67
2022/11/06 04:33:49;;;;;;;0.20;0.20;;;20.60;99.90;;;;;;5057502;28;20044;-66
2022/11/06 04:36:39;;;;;;;12.60;1.77;;;20.50;99.90;;;;;;5071195;28;20499;-65
2022/11/06 04:39:13;;;;;;;0.77;0.55;;;20.60;99.90;;;;;;5071167;28;20032;-63
2022/11/06 04:41:59;;;;;;;1.25;1.15;;;20.60;99.90;;;;;;5071243;28;20025;-63
2022/11/06 04:44:37;;;;;;;0.40;0.40;;;21.00;99.90;;;;;;5070813;28;20136;-63
2022/11/06 04:47:06;;;;;;;0.50;0.50;;;20.90;99.90;;;;;;5071144;28;20032;-62
2022/11/06 04:49:34;;;;;;;0.57;0.57;;;20.80;99.90;;;;;;5071221;28;20124;-63
2022/11/06 04:52:03;;;;;;;10.15;0.93;;;15.60;99.90;;;;;;5071169;28;20048;-63
2022/11/06 04:54:30;;;;;;;0.85;0.85;;;16.10;99.90;;;;;;5070904;28;20112;-62
2022/11/06 04:56:59;;;;;;;4.63;3.65;;;18.20;99.90;;;;;;5071313;28;20124;-63
2022/11/06 04:59:25;;;;;;;1.50;1.40;;;18.30;99.90;;;;;;5071171;28;20028;-63
2022/11/06 05:01:52;;;;;;;5.97;3.13;;;18.30;99.90;;;;;;5071032;28;20031;-63
2022/11/06 05:04:18;;;;;;;0.68;0.63;;;18.40;99.90;;;;;;5070923;28;20047;-64
2022/11/06 05:06:43;;;;;;;2.10;1.98;;;18.50;99.90;;;;;;5071047;28;20473;-64
2022/11/06 05:09:09;;;;;;;5.25;2.30;;;17.50;99.90;;;;;;5071077;28;20025;-65
2022/11/06 05:11:37;;;;;;;0.50;0.50;;;16.90;99.90;;;;;;5070909;28;20684;-64
2022/11/06 05:14:03;;;;;;;7.30;2.92;;;16.40;99.90;;;;;;5071156;28;20028;-65
2022/11/06 05:16:28;;;;;;;0.93;0.82;;;16.10;99.90;;;;;;5070744;28;20094;-64
2022/11/06 05:18:54;;;;;;;3.15;1.33;;;16.00;99.90;;;;;;5071002;28;20040;-64
2022/11/06 05:24:04;;;;;;;0.43;0.43;;;15.90;99.90;;;;;;5071082;28;20036;-65
2022/11/06 05:26:30;;;;;;;5.57;1.75;;;15.80;99.90;;;;;;5070801;28;20020;-64
2022/11/06 05:28:56;;;;;;;0.40;0.40;;;15.70;99.90;;;;;;5070874;28;20127;-76
2022/11/06 05:31:23;;;;;;;12.25;3.28;;;15.60;99.90;;;;;;5073671;28;20119;-76
2022/11/06 05:33:49;;;;;;;23.00;1.48;;;15.40;99.90;;;;;;5074277;28;20028;-79
2022/11/06 05:36:15;;;;;;;3.83;1.70;;;15.20;99.90;;;;;;5074549;28;19916;-77
2022/11/06 05:38:40;;;;;;;0.75;0.75;;;15.20;99.90;;;;;;5074500;28;20025;-77
2022/11/06 05:41:06;;;;;;;2.70;1.27;;;15.10;99.90;;;;;;5074456;28;20055;-76
2022/11/06 05:43:32;;;;;;;0.75;0.75;;;15.20;99.90;;;;;;5074392;28;20092;-76
2022/11/06 05:45:59;;;;;;;2.20;0.82;;;15.00;99.90;;;;;;5074427;28;20052;-77
2022/11/06 05:48:28;;;;;;;1.73;1.10;;;14.90;99.90;;;;;;5073112;28;20456;-74
2022/11/06 05:51:02;;;;;;;0.45;0.45;;;14.80;99.90;;;;;;5074380;28;20082;-74
2022/11/06 05:53:33;;;;;;;0.50;0.50;;;14.70;99.90;;;;;;5074189;28;20038;-74
2022/11/06 05:55:59;;;;;;;1.08;0.47;;;14.70;99.90;;;;;;5073858;28;20020;-76
